Time;durP1;ratioP1;P1;durP2;ratioP2;P2;SDS_P1;SDS_P2;PMS_P1;PMS_P2;Temp;Humidity;BMP_temperature;BMP_pressure;BME280_temperature;BME280_humidity;BME280_pressure;Samples;Min_cycle;Max_cycle;Signal;HPM_P1;HPM_P2
2022/11/22 00:00:28;;;;;;;27.70;16.95;;;3.60;99.90;;;;;;5067044;28;20607;-67
2022/11/22 00:02:54;;;;;;;25.30;17.52;;;3.50;99.90;;;;;;5062850;28;20036;-67
2022/11/22 00:05:20;;;;;;;26.48;16.88;;;3.60;99.90;;;;;;5065760;28;20036;-66
2022/11/22 00:07:46;;;;;;;27.77;17.10;;;3.60;99.90;;;;;;5058563;28;20032;-67
2022/11/22 00:10:14;;;;;;;28.63;17.83;;;3.50;99.90;;;;;;5065291;28;20094;-67
2022/11/22 00:12:40;;;;;;;23.63;16.30;;;3.60;99.90;;;;;;5057962;28;20481;-66
2022/11/22 00:15:07;;;;;;;25.55;15.95;;;3.60;99.90;;;;;;5059119;28;20377;-67
2022/11/22 00:17:33;;;;;;;26.35;15.18;;;3.60;99.90;;;;;;5058800;28;20087;-67
2022/11/22 00:19:59;;;;;;;26.60;16.63;;;3.60;99.90;;;;;;5061698;28;20137;-67
2022/11/22 00:22:25;;;;;;;23.50;15.77;;;3.60;99.90;;;;;;5062951;28;20140;-67
2022/11/22 00:24:51;;;;;;;25.95;16.17;;;3.60;99.90;;;;;;5067115;28;20037;-67
2022/11/22 00:27:18;;;;;;;23.17;14.77;;;3.60;99.90;;;;;;5057319;28;20033;-67
2022/11/22 00:29:43;;;;;;;24.17;16.30;;;3.70;99.90;;;;;;5064912;28;20392;-67
2022/11/22 00:32:09;;;;;;;22.90;15.90;;;3.70;99.90;;;;;;5061473;28;20044;-67
2022/11/22 00:34:35;;;;;;;26.10;16.17;;;3.70;99.90;;;;;;5061202;28;20041;-67
2022/11/22 00:37:00;;;;;;;22.00;14.68;;;3.70;99.90;;;;;;5058565;28;20037;-66
2022/11/22 00:39:26;;;;;;;20.13;15.25;;;3.70;99.90;;;;;;5061010;28;20044;-67
2022/11/22 00:41:52;;;;;;;21.98;15.80;;;3.70;99.90;;;;;;5063978;28;20044;-67
2022/11/22 00:44:17;;;;;;;26.48;16.98;;;3.70;99.90;;;;;;5059638;28;20037;-66
2022/11/22 00:46:43;;;;;;;23.40;15.77;;;3.70;99.90;;;;;;5059620;28;20036;-67
2022/11/22 00:49:09;;;;;;;22.00;15.15;;;3.70;99.90;;;;;;5061137;28;20284;-67
2022/11/22 00:51:34;;;;;;;19.45;14.77;;;3.70;99.90;;;;;;5060875;28;20397;-66
2022/11/22 00:54:00;;;;;;;23.70;16.15;;;3.70;99.90;;;;;;5059330;28;20063;-66
2022/11/22 00:56:26;;;;;;;23.02;14.75;;;3.80;99.90;;;;;;5061699;28;20033;-66
2022/11/22 00:58:51;;;;;;;20.65;14.68;;;3.80;99.90;;;;;;5058509;28;20076;-66
2022/11/22 01:01:17;;;;;;;22.30;14.93;;;3.80;99.90;;;;;;5064428;28;20044;-67
2022/11/22 01:03:43;;;;;;;20.20;14.18;;;3.80;99.90;;;;;;5060977;28;20025;-67
2022/11/22 01:06:09;;;;;;;23.92;15.35;;;3.90;99.90;;;;;;5066835;28;20036;-67
2022/11/22 01:08:34;;;;;;;21.98;16.00;;;3.80;99.90;;;;;;5062861;28;20035;-67
2022/11/22 01:11:00;;;;;;;22.98;15.70;;;3.90;99.90;;;;;;5060982;28;20043;-67
2022/11/22 01:13:28;;;;;;;27.15;16.52;;;3.90;99.90;;;;;;5062777;28;20158;-67
2022/11/22 01:15:59;;;;;;;22.25;16.52;;;3.90;99.90;;;;;;5057038;28;20476;-67
2022/11/22 01:18:25;;;;;;;22.65;16.17;;;3.90;99.90;;;;;;5063790;28;20037;-67
2022/11/22 01:20:50;;;;;;;26.02;16.77;;;3.90;99.90;;;;;;5064943;28;20055;-67
2022/11/22 01:23:16;;;;;;;24.35;16.00;;;3.80;99.90;;;;;;5065117;28;20045;-67
2022/11/22 01:25:43;;;;;;;24.50;16.92;;;3.80;99.90;;;;;;5057733;28;20040;-67
2022/11/22 01:28:09;;;;;;;24.75;16.73;;;3.80;99.90;;;;;;5064357;28;20132;-67
2022/11/22 01:30:35;;;;;;;27.60;17.92;;;3.80;99.90;;;;;;5059225;28;20545;-67
2022/11/22 01:33:01;;;;;;;25.88;17.80;;;3.80;99.90;;;;;;5055514;28;20119;-67
2022/11/22 01:35:26;;;;;;;27.00;18.08;;;3.80;99.90;;;;;;5060215;28;20144;-67
2022/11/22 01:37:52;;;;;;;28.92;18.50;;;3.80;99.90;;;;;;5061273;28;20056;-67
2022/11/22 01:40:18;;;;;;;25.15;16.98;;;3.80;99.90;;;;;;5059897;28;20045;-67
2022/11/22 01:42:51;;;;;;;27.05;17.92;;;3.80;99.90;;;;;;5059953;28;20092;-67
2022/11/22 01:45:29;;;;;;;24.60;16.67;;;3.80;99.90;;;;;;5060322;28;20140;-67
2022/11/22 01:48:11;;;;;;;24.48;17.55;;;3.70;99.90;;;;;;5063806;28;20133;-66
2022/11/22 01:50:41;;;;;;;31.33;17.33;;;3.80;99.90;;;;;;5057713;28;20566;-67
2022/11/22 01:53:14;;;;;;;27.02;17.80;;;3.70;99.90;;;;;;5058952;28;20052;-67
2022/11/22 01:55:41;;;;;;;26.85;17.92;;;3.80;99.90;;;;;;5058425;28;20338;-67
2022/11/22 01:58:09;;;;;;;25.40;17.52;;;3.80;99.90;;;;;;5059500;28;20028;-67
2022/11/22 02:00:37;;;;;;;28.88;18.00;;;3.80;99.90;;;;;;5062220;28;20080;-67
2022/11/22 02:03:05;;;;;;;31.25;18.13;;;3.70;99.90;;;;;;5057959;28;20041;-67
2022/11/22 02:05:33;;;;;;;29.67;18.33;;;3.80;99.90;;;;;;5062557;28;20435;-67
2022/11/22 02:08:05;;;;;;;29.42;18.17;;;3.80;99.90;;;;;;5060715;28;20466;-67
2022/11/22 02:10:35;;;;;;;31.90;18.60;;;3.80;99.90;;;;;;5055853;28;20032;-67
2022/11/22 02:13:02;;;;;;;28.70;18.08;;;3.80;99.90;;;;;;5059384;28;20052;-67
2022/11/22 02:15:28;;;;;;;28.10;17.90;;;3.90;99.90;;;;;;5059441;28;20037;-67
2022/11/22 02:17:56;;;;;;;31.05;17.30;;;3.80;99.90;;;;;;5062861;28;20444;-67
2022/11/22 02:20:22;;;;;;;23.73;16.75;;;3.80;99.90;;;;;;5061189;28;20049;-66
2022/11/22 02:22:47;;;;;;;29.17;18.58;;;3.90;99.90;;;;;;5057542;28;20130;-66
2022/11/22 02:25:31;;;;;;;34.05;18.70;;;3.90;99.90;;;;;;5060877;28;20037;-66
2022/11/22 02:27:57;;;;;;;30.85;18.38;;;3.90;99.90;;;;;;5056138;28;20090;-67
2022/11/22 02:30:23;;;;;;;27.48;18.58;;;3.90;99.90;;;;;;5057102;28;20461;-67
2022/11/22 02:32:48;;;;;;;28.45;17.48;;;3.90;99.90;;;;;;5051792;28;20428;-66
2022/11/22 02:35:17;;;;;;;31.27;17.23;;;3.90;99.90;;;;;;5060669;28;20464;-67
2022/11/22 02:37:43;;;;;;;28.35;18.52;;;3.90;99.90;;;;;;5056043;28;20064;-66
2022/11/22 02:40:13;;;;;;;32.22;18.40;;;3.90;99.90;;;;;;5063094;28;20040;-66
2022/11/22 02:42:44;;;;;;;29.38;17.13;;;4.00;99.90;;;;;;5058521;28;20718;-66
2022/11/22 02:45:10;;;;;;;32.30;18.92;;;3.90;99.90;;;;;;5060143;28;20052;-66
2022/11/22 02:47:36;;;;;;;27.65;17.85;;;3.90;99.90;;;;;;5059988;28;20508;-66
2022/11/22 02:50:02;;;;;;;37.70;18.70;;;4.00;99.90;;;;;;5057161;28;20126;-66
2022/11/22 02:52:27;;;;;;;31.63;18.70;;;4.00;99.90;;;;;;5059878;28;20052;-66
2022/11/22 02:54:53;;;;;;;30.85;17.83;;;4.00;99.90;;;;;;5059266;28;20033;-66
2022/11/22 02:57:19;;;;;;;31.45;17.77;;;4.00;99.90;;;;;;5056451;28;20045;-66
2022/11/22 02:59:44;;;;;;;31.50;18.65;;;4.00;99.90;;;;;;5058546;28;20062;-66
2022/11/22 03:02:10;;;;;;;27.83;17.65;;;4.10;99.90;;;;;;5065316;28;20072;-66
2022/11/22 03:04:36;;;;;;;28.88;17.02;;;4.10;99.90;;;;;;5060053;28;20039;-66
2022/11/22 03:07:01;;;;;;;28.42;18.08;;;4.10;99.90;;;;;;5061328;28;20036;-66
2022/11/22 03:09:27;;;;;;;27.58;17.58;;;4.10;99.90;;;;;;5056100;28;20036;-66
2022/11/22 03:11:53;;;;;;;28.90;17.20;;;4.10;99.90;;;;;;5058138;28;20045;-66
2022/11/22 03:14:19;;;;;;;29.40;17.30;;;4.10;99.90;;;;;;5056362;28;20048;-66
2022/11/22 03:16:46;;;;;;;30.23;18.55;;;4.20;99.90;;;;;;5058720;28;20033;-66
2022/11/22 03:19:12;;;;;;;28.60;18.30;;;4.20;99.90;;;;;;5057779;28;20120;-66
2022/11/22 03:21:42;;;;;;;25.80;17.10;;;4.20;99.90;;;;;;5065045;28;20059;-66
2022/11/22 03:24:08;;;;;;;28.10;17.08;;;4.20;99.90;;;;;;5059283;28;20467;-66
2022/11/22 03:26:35;;;;;;;28.42;17.15;;;4.20;99.90;;;;;;5061312;28;20493;-66
2022/11/22 03:29:01;;;;;;;31.77;17.85;;;4.20;99.90;;;;;;5058992;28;20484;-66
2022/11/22 03:31:28;;;;;;;28.50;17.80;;;4.20;99.90;;;;;;5061885;28;20179;-66
2022/11/22 03:33:54;;;;;;;31.50;18.02;;;4.20;99.90;;;;;;5057108;28;20032;-67
2022/11/22 03:36:20;;;;;;;32.50;18.08;;;4.30;99.90;;;;;;5059010;28;20044;-67
2022/11/22 03:38:46;;;;;;;29.55;18.30;;;4.30;99.90;;;;;;5059708;28;20040;-66
2022/11/22 03:41:12;;;;;;;34.88;17.42;;;4.30;99.90;;;;;;5065856;28;20044;-67
2022/11/22 03:43:37;;;;;;;25.33;16.83;;;4.30;99.90;;;;;;5059898;28;20041;-66
2022/11/22 03:46:03;;;;;;;28.20;16.52;;;4.20;99.90;;;;;;5062183;28;20036;-66
2022/11/22 03:48:29;;;;;;;30.30;17.73;;;4.40;99.90;;;;;;5060938;28;20109;-66
2022/11/22 03:51:03;;;;;;;27.45;17.30;;;4.30;99.90;;;;;;5066664;28;20047;-66
2022/11/22 03:53:29;;;;;;;30.25;17.40;;;4.30;99.90;;;;;;5040070;28;20048;-66
2022/11/22 03:55:54;;;;;;;30.83;17.58;;;4.30;99.90;;;;;;5059697;28;20480;-67
2022/11/22 03:58:20;;;;;;;23.30;15.98;;;4.30;99.90;;;;;;5061768;28;20369;-66
2022/11/22 04:00:46;;;;;;;27.58;17.30;;;4.30;99.90;;;;;;5064073;28;20028;-66
2022/11/22 04:03:11;;;;;;;27.45;17.02;;;4.40;99.90;;;;;;5064481;28;20044;-66
2022/11/22 04:05:37;;;;;;;24.92;16.20;;;4.30;99.90;;;;;;5058772;28;20153;-66
2022/11/22 04:08:03;;;;;;;24.33;16.67;;;4.40;99.90;;;;;;5064335;28;20025;-66
2022/11/22 04:10:28;;;;;;;27.67;17.42;;;4.40;99.90;;;;;;5062056;28;20041;-67
2022/11/22 04:12:58;;;;;;;30.08;17.10;;;4.40;99.90;;;;;;5064603;28;20040;-66
2022/11/22 04:15:24;;;;;;;31.33;17.35;;;4.40;99.90;;;;;;5059220;28;20052;-67
2022/11/22 04:17:50;;;;;;;31.98;18.35;;;4.40;99.90;;;;;;5058071;28;20124;-66
2022/11/22 04:23:15;;;;;;;22.50;15.82;;;4.40;99.90;;;;;;5060681;28;20099;-66
2022/11/22 04:25:44;;;;;;;31.48;17.13;;;4.50;99.90;;;;;;5061046;28;20098;-66
2022/11/22 04:28:11;;;;;;;24.60;15.93;;;4.50;99.90;;;;;;5062541;28;20036;-66
2022/11/22 04:33:22;;;;;;;28.10;17.25;;;4.50;99.90;;;;;;5062986;28;20353;-66
2022/11/22 04:35:48;;;;;;;24.67;16.33;;;4.50;99.90;;;;;;5064619;28;20444;-66
2022/11/22 04:38:15;;;;;;;31.48;18.17;;;4.60;99.90;;;;;;5060832;28;20040;-66
2022/11/22 04:40:41;;;;;;;28.42;17.52;;;4.60;99.90;;;;;;5061461;28;20039;-66
2022/11/22 04:46:01;;;;;;;33.00;17.75;;;4.60;99.90;;;;;;5062064;28;20269;-66
2022/11/22 04:48:26;;;;;;;26.67;17.65;;;4.70;99.90;;;;;;5062506;28;20116;-66
2022/11/22 04:53:36;;;;;;;23.90;16.63;;;4.70;99.90;;;;;;5066420;28;20100;-66
2022/11/22 04:56:02;;;;;;;25.58;16.48;;;4.80;99.90;;;;;;5063234;28;20044;-66
2022/11/22 04:58:28;;;;;;;27.67;17.38;;;4.80;99.90;;;;;;5063812;28;20043;-66
2022/11/22 05:00:53;;;;;;;26.25;16.83;;;4.80;99.90;;;;;;5050740;28;20060;-66
2022/11/22 05:03:19;;;;;;;30.02;16.55;;;4.80;99.90;;;;;;5055887;28;20138;-66
2022/11/22 05:05:45;;;;;;;31.70;17.33;;;4.80;99.90;;;;;;5067610;28;20033;-66
2022/11/22 05:08:12;;;;;;;31.90;16.95;;;4.80;99.90;;;;;;5062881;28;20535;-66
2022/11/22 05:10:57;;;;;;;30.55;16.60;;;4.80;99.90;;;;;;5057732;28;20126;-66
2022/11/22 05:13:28;;;;;;;25.08;16.27;;;4.80;99.90;;;;;;5059552;28;20055;-67
2022/11/22 05:15:55;;;;;;;31.70;16.63;;;4.90;99.90;;;;;;5063227;28;20425;-66
2022/11/22 05:18:22;;;;;;;27.35;16.25;;;4.90;99.90;;;;;;5064954;28;20047;-66
2022/11/22 05:20:48;;;;;;;25.70;16.45;;;4.90;99.90;;;;;;5064399;28;20463;-66
2022/11/22 05:25:59;;;;;;;26.08;16.02;;;5.00;99.90;;;;;;5064967;28;20044;-66
2022/11/22 05:28:28;;;;;;;31.20;16.30;;;4.90;99.90;;;;;;5060179;28;20025;-66
2022/11/22 05:30:55;;;;;;;26.73;15.90;;;4.90;99.90;;;;;;5061263;28;20033;-66
2022/11/22 05:33:21;;;;;;;22.80;14.32;;;5.00;99.90;;;;;;5058219;28;20043;-66
2022/11/22 05:35:47;;;;;;;34.72;16.60;;;5.00;99.90;;;;;;5062545;28;20456;-66
2022/11/22 05:38:12;;;;;;;26.60;15.23;;;5.00;99.90;;;;;;5062304;28;20046;-66
2022/11/22 05:40:38;;;;;;;28.55;15.88;;;5.00;99.90;;;;;;5059234;28;20029;-66
2022/11/22 05:43:04;;;;;;;25.88;15.85;;;5.10;99.90;;;;;;5060214;28;20036;-66
2022/11/22 05:45:29;;;;;;;22.48;15.00;;;5.10;99.90;;;;;;5061708;28;20155;-66
2022/11/22 05:47:56;;;;;;;24.48;14.93;;;5.10;99.90;;;;;;5065474;28;20499;-66
2022/11/22 05:50:22;;;;;;;23.48;14.35;;;5.10;99.90;;;;;;5059211;28;20048;-66
2022/11/22 05:52:47;;;;;;;30.90;15.55;;;5.10;99.90;;;;;;5060787;28;20049;-66
2022/11/22 05:55:13;;;;;;;29.75;15.25;;;5.20;99.90;;;;;;5063722;28;20051;-66
2022/11/22 05:57:39;;;;;;;27.65;14.95;;;5.20;99.90;;;;;;5060370;28;20047;-66
2022/11/22 06:00:05;;;;;;;23.77;14.43;;;5.20;99.90;;;;;;5057445;28;20365;-66
2022/11/22 06:02:31;;;;;;;28.88;14.40;;;5.20;99.90;;;;;;5060860;28;20044;-66
2022/11/22 06:04:56;;;;;;;27.02;14.20;;;5.20;99.90;;;;;;5060269;28;20436;-66
2022/11/22 06:07:22;;;;;;;22.08;13.18;;;5.30;99.90;;;;;;5059657;28;20037;-66
2022/11/22 06:09:48;;;;;;;25.67;14.02;;;5.20;99.90;;;;;;5053276;28;20074;-66
2022/11/22 06:12:14;;;;;;;22.67;12.38;;;5.30;99.90;;;;;;5060181;28;20040;-66
2022/11/22 06:14:40;;;;;;;29.65;13.63;;;5.30;99.90;;;;;;5059175;28;20469;-66
2022/11/22 06:17:05;;;;;;;22.80;12.43;;;5.30;99.90;;;;;;5062856;28;20121;-66
2022/11/22 06:19:31;;;;;;;26.40;12.40;;;5.30;99.90;;;;;;5058015;28;20593;-66
2022/11/22 06:21:57;;;;;;;27.75;12.60;;;5.30;99.90;;;;;;5062531;28;20076;-66
2022/11/22 06:24:22;;;;;;;33.88;14.63;;;5.30;99.90;;;;;;5059677;28;20506;-66
2022/11/22 06:26:48;;;;;;;23.05;11.18;;;5.20;99.90;;;;;;5058509;28;20039;-66
2022/11/22 06:29:14;;;;;;;23.25;11.00;;;5.30;99.90;;;;;;5056942;28;20064;-66
2022/11/22 06:31:40;;;;;;;23.17;12.00;;;5.20;99.90;;;;;;5062067;28;20067;-66
2022/11/22 06:34:05;;;;;;;23.63;10.75;;;5.20;99.90;;;;;;5056596;28;20049;-66
2022/11/22 06:36:33;;;;;;;24.73;11.05;;;5.20;99.90;;;;;;5061291;28;20113;-66
2022/11/22 06:38:59;;;;;;;23.70;11.13;;;5.10;99.90;;;;;;5058690;28;20388;-66
2022/11/22 06:41:30;;;;;;;30.33;11.43;;;5.10;99.90;;;;;;5058634;28;20111;-66
2022/11/22 06:43:56;;;;;;;22.00;10.07;;;5.10;99.90;;;;;;5057651;28;20622;-66
2022/11/22 06:46:23;;;;;;;19.13;9.52;;;5.00;99.90;;;;;;5058520;28;20047;-66
2022/11/22 06:48:49;;;;;;;22.70;10.98;;;4.90;99.90;;;;;;5064412;28;20036;-66
2022/11/22 06:51:27;;;;;;;21.88;10.20;;;4.90;99.90;;;;;;5060625;28;20119;-66
2022/11/22 06:53:56;;;;;;;34.13;10.15;;;4.90;99.90;;;;;;5056136;28;20041;-66
2022/11/22 06:56:31;;;;;;;22.98;9.85;;;4.90;99.90;;;;;;5060143;28;20041;-66
2022/11/22 06:59:00;;;;;;;22.73;9.40;;;4.80;99.90;;;;;;5059752;28;20142;-66
2022/11/22 07:01:28;;;;;;;27.45;10.25;;;4.70;99.90;;;;;;5060969;28;20102;-67
2022/11/22 07:03:57;;;;;;;25.45;10.25;;;4.80;99.90;;;;;;5056360;28;20035;-65
2022/11/22 07:06:24;;;;;;;26.63;10.23;;;4.80;99.90;;;;;;5056636;28;20033;-66
2022/11/22 07:08:51;;;;;;;26.98;10.40;;;4.70;99.90;;;;;;5053930;28;20527;-66
2022/11/22 07:11:19;;;;;;;27.40;9.82;;;4.70;99.90;;;;;;5056379;28;20060;-66
2022/11/22 07:13:46;;;;;;;25.38;9.60;;;4.70;99.90;;;;;;5061519;28;20079;-66
2022/11/22 07:16:14;;;;;;;22.55;8.88;;;4.70;99.90;;;;;;5065006;28;20425;-66
2022/11/22 07:18:40;;;;;;;30.67;11.25;;;4.70;99.90;;;;;;5064970;28;20072;-66
2022/11/22 07:21:08;;;;;;;20.02;9.38;;;4.60;99.90;;;;;;5063179;28;20437;-66
2022/11/22 07:23:34;;;;;;;29.25;10.02;;;4.70;99.90;;;;;;5062188;28;20056;-67
2022/11/22 07:26:00;;;;;;;24.98;9.10;;;4.70;99.90;;;;;;5063399;28;20056;-67
2022/11/22 07:28:26;;;;;;;24.15;8.57;;;4.60;99.90;;;;;;5064896;28;20075;-66
2022/11/22 07:30:52;;;;;;;24.15;8.15;;;4.70;99.90;;;;;;5057396;28;20155;-67
2022/11/22 07:33:18;;;;;;;13.52;6.90;;;4.70;99.90;;;;;;5064849;28;20574;-66
2022/11/22 07:35:44;;;;;;;23.98;7.85;;;4.60;99.90;;;;;;5058241;28;20135;-66
2022/11/22 07:38:09;;;;;;;29.35;7.78;;;4.60;99.90;;;;;;5069544;28;20316;-66
2022/11/22 07:40:35;;;;;;;25.50;7.35;;;4.60;99.90;;;;;;5061789;28;20037;-66
2022/11/22 07:43:01;;;;;;;22.25;6.72;;;4.70;99.90;;;;;;5065680;28;20051;-66
2022/11/22 07:45:27;;;;;;;19.70;6.63;;;4.60;99.90;;;;;;5062468;28;20041;-66
2022/11/22 07:47:52;;;;;;;25.00;6.40;;;4.70;99.90;;;;;;5063342;28;20488;-66
2022/11/22 07:50:18;;;;;;;26.73;6.55;;;4.70;99.90;;;;;;5065646;28;20037;-66
2022/11/22 07:52:44;;;;;;;22.60;5.80;;;4.60;99.90;;;;;;5063645;28;20033;-66
2022/11/22 07:55:10;;;;;;;21.75;5.85;;;4.70;99.90;;;;;;5056630;28;20055;-66
2022/11/22 07:57:36;;;;;;;22.88;5.25;;;4.70;99.90;;;;;;5064739;28;20033;-66
2022/11/22 08:00:03;;;;;;;23.30;5.18;;;4.70;99.90;;;;;;5060457;28;20033;-66
2022/11/22 08:02:29;;;;;;;20.73;4.75;;;4.80;99.90;;;;;;5063142;28;20108;-66
2022/11/22 08:04:54;;;;;;;17.13;5.15;;;4.70;99.90;;;;;;5057633;28;20223;-66
2022/11/22 08:07:20;;;;;;;16.98;4.93;;;4.80;99.90;;;;;;5064546;28;20032;-66
2022/11/22 08:09:46;;;;;;;21.35;5.00;;;4.80;99.90;;;;;;5061676;28;20051;-66
2022/11/22 08:12:12;;;;;;;16.23;4.75;;;4.80;99.90;;;;;;5059422;28;20064;-66
2022/11/22 08:14:37;;;;;;;14.10;3.97;;;4.90;99.90;;;;;;5063880;28;20104;-66
2022/11/22 08:17:03;;;;;;;23.08;4.60;;;4.80;99.90;;;;;;5066381;28;20517;-66
2022/11/22 08:19:30;;;;;;;15.65;4.20;;;4.90;99.90;;;;;;5064207;28;20089;-66
2022/11/22 08:21:55;;;;;;;18.42;4.45;;;4.90;99.90;;;;;;5060600;28;20047;-66
2022/11/22 08:24:21;;;;;;;12.75;4.18;;;5.00;99.90;;;;;;5056005;28;20052;-66
2022/11/22 08:26:47;;;;;;;12.57;3.30;;;5.00;99.90;;;;;;5044992;28;20332;-66
2022/11/22 08:29:12;;;;;;;18.98;4.35;;;5.10;99.90;;;;;;5059859;28;20037;-66
2022/11/22 08:31:39;;;;;;;17.50;4.18;;;5.10;99.90;;;;;;5059873;28;20502;-66
2022/11/22 08:34:05;;;;;;;15.63;4.07;;;5.20;99.90;;;;;;5059171;28;20037;-66
2022/11/22 08:36:31;;;;;;;20.88;4.30;;;5.20;99.90;;;;;;5059539;28;20064;-66
2022/11/22 08:38:57;;;;;;;13.55;4.03;;;5.20;99.90;;;;;;5061430;28;20389;-66
2022/11/22 08:41:25;;;;;;;24.25;5.40;;;5.30;99.90;;;;;;5059673;28;20055;-66
2022/11/22 08:43:51;;;;;;;21.25;4.05;;;5.30;99.90;;;;;;5062361;28;20037;-66
2022/11/22 08:46:18;;;;;;;16.88;3.80;;;5.40;99.90;;;;;;5061072;28;20056;-66
2022/11/22 08:48:44;;;;;;;19.17;3.92;;;5.50;99.90;;;;;;5061508;28;20095;-67
2022/11/22 08:51:12;;;;;;;19.70;4.15;;;5.50;99.90;;;;;;5058497;28;20068;-67
2022/11/22 08:53:39;;;;;;;12.77;3.00;;;5.60;99.90;;;;;;5058642;28;20072;-67
2022/11/22 08:56:08;;;;;;;16.25;3.53;;;5.60;99.90;;;;;;5063036;28;20412;-67
2022/11/22 08:58:34;;;;;;;17.70;3.20;;;5.80;99.90;;;;;;5063719;28;20369;-67
2022/11/22 09:01:20;;;;;;;14.85;3.08;;;5.90;99.90;;;;;;5062677;28;20056;-67
2022/11/22 09:03:46;;;;;;;17.38;2.97;;;6.00;99.90;;;;;;5061020;28;20125;-67
2022/11/22 09:06:17;;;;;;;12.63;2.85;;;6.00;99.90;;;;;;5058344;28;20064;-66
2022/11/22 09:08:43;;;;;;;11.95;2.72;;;6.00;99.90;;;;;;5061836;28;20874;-66
2022/11/22 09:11:17;;;;;;;13.43;2.83;;;6.00;99.90;;;;;;5063663;28;20053;-66
2022/11/22 09:13:44;;;;;;;8.93;2.78;;;6.00;99.90;;;;;;5066324;28;20385;-66
2022/11/22 09:16:18;;;;;;;13.80;2.80;;;6.00;99.90;;;;;;5062141;28;20431;-66
2022/11/22 09:18:44;;;;;;;11.88;2.67;;;5.90;99.90;;;;;;5059506;28;20382;-67
2022/11/22 09:21:16;;;;;;;19.40;3.17;;;6.00;99.90;;;;;;5062288;28;20044;-67
2022/11/22 09:23:43;;;;;;;13.60;3.08;;;6.00;99.90;;;;;;5057810;28;20048;-67
2022/11/22 09:26:12;;;;;;;14.13;2.85;;;6.00;99.90;;;;;;5062397;28;20044;-67
2022/11/22 09:28:37;;;;;;;14.38;3.15;;;6.00;99.90;;;;;;5053846;28;20431;-67
2022/11/22 09:31:07;;;;;;;13.07;3.00;;;6.00;99.90;;;;;;5056738;28;20037;-66
2022/11/22 09:33:34;;;;;;;11.43;2.47;;;6.10;99.90;;;;;;5057845;28;20041;-67
2022/11/22 09:36:06;;;;;;;12.48;2.63;;;6.10;99.90;;;;;;5061135;28;20070;-66
2022/11/22 09:38:33;;;;;;;10.95;2.47;;;6.20;99.90;;;;;;5062118;28;20133;-67
2022/11/22 09:41:01;;;;;;;12.27;2.58;;;6.40;99.90;;;;;;5058786;28;20094;-67
2022/11/22 09:43:35;;;;;;;12.77;2.42;;;6.40;99.90;;;;;;5058751;28;20044;-67
2022/11/22 09:46:14;;;;;;;12.38;2.95;;;6.50;99.90;;;;;;5061368;28;20071;-66
2022/11/22 09:48:59;;;;;;;10.77;2.33;;;6.50;99.90;;;;;;5058432;28;20127;-66
2022/11/22 09:51:38;;;;;;;14.40;2.72;;;6.50;99.90;;;;;;5060771;28;20044;-67
2022/11/22 09:54:09;;;;;;;14.93;2.47;;;6.50;99.90;;;;;;5058519;28;20040;-67
2022/11/22 09:56:36;;;;;;;11.45;2.45;;;6.50;99.90;;;;;;5057731;28;20602;-67
2022/11/22 09:59:08;;;;;;;9.15;2.35;;;6.50;99.90;;;;;;5062562;28;20433;-67
2022/11/22 10:01:40;;;;;;;19.98;2.95;;;6.50;99.90;;;;;;5061325;28;20539;-67
2022/11/22 10:04:20;;;;;;;13.10;2.92;;;6.50;99.90;;;;;;5064409;28;20039;-67
2022/11/22 10:06:50;;;;;;;13.32;2.75;;;6.60;99.90;;;;;;5059184;28;20094;-67
2022/11/22 10:09:46;;;;;;;16.80;2.83;;;6.50;99.90;;;;;;5064074;28;20048;-67
2022/11/22 10:12:24;;;;;;;13.48;2.65;;;6.60;99.90;;;;;;5061132;28;20492;-67
2022/11/22 10:15:16;;;;;;;11.10;2.78;;;6.60;99.90;;;;;;5074722;28;20040;-67
2022/11/22 10:18:03;;;;;;;14.23;3.03;;;6.60;99.90;;;;;;5061422;28;20056;-66
2022/11/22 10:20:34;;;;;;;11.88;2.45;;;6.60;99.90;;;;;;5063558;28;20554;-66
2022/11/22 10:23:01;;;;;;;9.48;2.15;;;6.70;99.90;;;;;;5059591;28;20045;-66
2022/11/22 10:25:38;;;;;;;10.00;3.05;;;6.80;99.90;;;;;;5059825;28;20116;-66
2022/11/22 10:28:21;;;;;;;13.40;2.88;;;6.80;99.90;;;;;;5059273;28;20365;-66
2022/11/22 10:31:23;;;;;;;10.88;2.72;;;7.00;99.90;;;;;;5048542;28;20043;-67
2022/11/22 10:33:54;;;;;;;11.95;2.65;;;7.10;99.90;;;;;;5022348;28;20110;-67
2022/11/22 10:36:54;;;;;;;8.18;1.83;;;7.20;99.90;;;;;;5060184;28;20033;-66
2022/11/22 10:39:34;;;;;;;11.02;2.67;;;7.20;99.90;;;;;;5054266;28;20162;-67
2022/11/22 10:42:21;;;;;;;10.93;2.25;;;7.20;99.90;;;;;;5059208;28;20041;-67
2022/11/22 10:45:19;;;;;;;10.93;2.58;;;7.10;99.90;;;;;;5059060;28;20234;-67
2022/11/22 10:48:03;;;;;;;8.73;2.00;;;7.00;99.90;;;;;;5039561;28;20041;-67
2022/11/22 10:51:03;;;;;;;8.90;1.90;;;7.00;99.90;;;;;;5057510;28;20173;-67
2022/11/22 10:53:44;;;;;;;7.47;2.38;;;6.90;99.90;;;;;;5063810;28;20088;-67
2022/11/22 10:56:32;;;;;;;8.55;2.33;;;7.00;99.90;;;;;;5062303;28;20052;-67
2022/11/22 10:59:32;;;;;;;10.13;2.72;;;7.10;99.90;;;;;;5059640;28;20036;-67
2022/11/22 11:02:16;;;;;;;12.82;3.25;;;7.30;99.90;;;;;;5059838;28;20045;-67
2022/11/22 11:04:43;;;;;;;16.43;3.07;;;7.40;99.90;;;;;;5058119;28;20112;-67
2022/11/22 11:07:20;;;;;;;6.72;2.05;;;7.40;99.90;;;;;;5061853;28;20075;-67
2022/11/22 11:10:16;;;;;;;9.68;2.10;;;7.50;99.90;;;;;;5059879;28;20051;-67
2022/11/22 11:13:00;;;;;;;11.18;2.42;;;7.50;99.90;;;;;;5059604;28;20101;-67
2022/11/22 11:15:51;;;;;;;10.45;1.80;;;7.50;99.90;;;;;;5056299;28;20535;-67
2022/11/22 11:18:31;;;;;;;5.85;1.70;;;7.50;99.90;;;;;;5057321;28;20156;-67
2022/11/22 11:20:57;;;;;;;8.45;2.00;;;7.50;99.90;;;;;;5056978;28;20037;-67
2022/11/22 11:23:23;;;;;;;7.85;1.40;;;7.50;99.90;;;;;;5058435;28;20053;-67
2022/11/22 11:25:50;;;;;;;9.77;1.85;;;7.50;99.90;;;;;;5061530;28;20119;-67
2022/11/22 11:28:18;;;;;;;6.95;2.05;;;7.50;99.90;;;;;;5063131;28;20063;-67
2022/11/22 11:30:52;;;;;;;11.23;2.33;;;7.50;99.90;;;;;;5055928;28;20037;-67
2022/11/22 11:33:31;;;;;;;9.85;2.35;;;7.50;99.90;;;;;;5060382;28;20072;-67
2022/11/22 11:36:04;;;;;;;6.50;1.95;;;7.50;99.90;;;;;;5056996;28;20044;-67
2022/11/22 11:38:47;;;;;;;11.48;1.58;;;7.50;99.90;;;;;;5063947;28;20055;-67
2022/11/22 11:41:17;;;;;;;10.75;2.65;;;7.50;99.90;;;;;;5055513;28;20451;-67
2022/11/22 11:43:44;;;;;;;8.73;1.65;;;7.50;99.90;;;;;;5059388;28;20155;-67
2022/11/22 11:46:23;;;;;;;10.63;1.65;;;7.40;99.90;;;;;;5059462;28;20360;-67
2022/11/22 11:48:50;;;;;;;7.53;1.55;;;7.40;99.90;;;;;;5061193;28;20490;-67
2022/11/22 11:51:17;;;;;;;6.55;1.05;;;7.40;99.90;;;;;;5056047;28;20040;-67
2022/11/22 11:53:54;;;;;;;10.68;1.23;;;7.40;99.90;;;;;;5062238;28;20364;-67
2022/11/22 11:56:27;;;;;;;7.97;1.50;;;7.50;99.90;;;;;;5061101;28;20059;-67
2022/11/22 11:58:55;;;;;;;5.82;1.25;;;7.50;99.90;;;;;;5065108;28;20045;-67
2022/11/22 12:01:23;;;;;;;9.38;1.50;;;7.50;99.90;;;;;;5058395;28;20062;-67
2022/11/22 12:03:58;;;;;;;15.35;1.95;;;7.60;99.90;;;;;;5065325;28;20132;-67
2022/11/22 12:06:29;;;;;;;9.15;1.55;;;7.60;99.90;;;;;;5063292;28;20037;-67
2022/11/22 12:08:56;;;;;;;11.95;1.80;;;7.70;99.90;;;;;;5064061;28;20067;-67
2022/11/22 12:11:46;;;;;;;8.85;1.70;;;7.60;99.90;;;;;;5062518;28;20045;-67
2022/11/22 12:14:14;;;;;;;10.25;1.70;;;7.60;99.90;;;;;;5064564;28;20051;-67
2022/11/22 12:16:49;;;;;;;7.88;1.60;;;7.70;99.90;;;;;;5061706;28;20509;-67
2022/11/22 12:19:43;;;;;;;10.07;1.60;;;7.70;99.90;;;;;;5067704;28;20072;-67
2022/11/22 12:22:20;;;;;;;6.97;1.67;;;7.70;99.90;;;;;;5061505;28;20119;-67
2022/11/22 12:24:59;;;;;;;5.35;1.58;;;7.70;99.90;;;;;;5064270;28;20044;-67
2022/11/22 12:27:25;;;;;;;6.40;1.70;;;7.70;99.90;;;;;;5063537;28;20063;-67
2022/11/22 12:29:52;;;;;;;9.68;2.00;;;7.60;99.90;;;;;;5064883;28;20033;-67
2022/11/22 12:32:30;;;;;;;10.07;2.30;;;7.70;99.90;;;;;;5062866;28;20049;-67
2022/11/22 12:35:02;;;;;;;6.15;1.65;;;7.60;99.90;;;;;;5064563;28;20033;-67
2022/11/22 12:38:00;;;;;;;7.25;2.28;;;7.60;99.90;;;;;;5059713;28;20037;-67
2022/11/22 12:40:31;;;;;;;8.05;2.00;;;7.60;99.90;;;;;;5059184;28;20443;-67
2022/11/22 12:43:05;;;;;;;6.90;1.42;;;7.60;99.90;;;;;;5062914;28;20044;-67
2022/11/22 12:45:41;;;;;;;9.15;1.40;;;7.60;99.90;;;;;;5059977;28;20049;-67
2022/11/22 12:48:47;;;;;;;9.05;1.55;;;7.60;99.90;;;;;;5060771;28;20076;-67
2022/11/22 12:51:41;;;;;;;6.40;1.30;;;7.60;99.90;;;;;;5053330;28;20080;-67
2022/11/22 12:54:14;;;;;;;5.07;1.30;;;7.50;99.90;;;;;;5060584;28;20044;-67
2022/11/22 12:56:55;;;;;;;6.75;1.27;;;7.50;99.90;;;;;;5062092;28;20119;-67
2022/11/22 12:59:51;;;;;;;5.32;1.35;;;7.50;99.90;;;;;;5062786;28;20052;-67
2022/11/22 13:02:35;;;;;;;5.03;1.13;;;7.50;99.90;;;;;;5061162;28;20067;-66
2022/11/22 13:05:09;;;;;;;8.77;1.50;;;7.40;99.90;;;;;;5059587;28;20040;-66
2022/11/22 13:07:34;;;;;;;6.60;1.35;;;7.40;99.90;;;;;;5061808;28;20048;-66
2022/11/22 13:10:33;;;;;;;9.80;1.45;;;7.40;99.90;;;;;;5062234;28;20479;-66